Michael S — WDE9794 — position and weather

sailwx.info

Track history (hours):
 
Tides and Currents Weather Stations Pressure Air Temp Water Temp Dewpoint Dewpoint Depression Visibility Wind Speed Wind Dir Waves Ship Positions

Michael S

Owner: Bisso Tow Boats Inc., New Orleans, LA. More information available from US FCC via Universal Licensing System and Coast Guard Vessel Documentation Center.

Last reported at 2016-Jul-30 22:32 UTC. Time now 2016-Jul-31 00:17 UTC.
Position N 29°57' W 090°01'.

Length 33 m; draft 3 m.

Type: Towing. MMSI: 367413700.

Date/timePositionNaut miles runAvg speedWind from/ knotsBaromVisibWave heightAir tempDewpointWater temp
2016-Jul-30 22:32N 29°57' W 090°01'0 0.0
2016-Jul-30 21:32N 29°57' W 090°01'0 0.0
2016-Jul-30 20:26N 29°57' W 090°01'0 0.0
2016-Jul-30 19:32N 29°57' W 090°01'0 0.0
2016-Jul-30 18:32N 29°57' W 090°01'1 1.4
2016-Jul-30 17:32N 29°56' W 089°60'1 1.4
2016-Jul-30 16:31N 29°57' W 090°01'0 0.0
2016-Jul-30 15:31N 29°57' W 090°01'0 0.0
2016-Jul-30 14:31N 29°57' W 090°01'0 0.0
2016-Jul-30 13:31N 29°57' W 090°01'0 0.0
2016-Jul-30 12:31N 29°57' W 090°01'0 0.4
2016-Jul-30 11:31N 29°57' W 090°01'0 0.0
2016-Jul-30 10:31N 29°57' W 090°01'0 0.0
2016-Jul-30 09:31N 29°57' W 090°01'0 0.0
2016-Jul-30 08:31N 29°57' W 090°01'0 0.0
2016-Jul-30 07:31N 29°57' W 090°01'0 0.0
2016-Jul-30 06:31N 29°57' W 090°01'0 0.0
2016-Jul-30 05:31N 29°57' W 090°01'0 0.0
2016-Jul-30 04:31N 29°57' W 090°01'0 0.0
2016-Jul-30 03:31N 29°57' W 090°01'0 0.0
2016-Jul-30 02:31N 29°57' W 090°01'0 0.0
2016-Jul-30 01:31N 29°57' W 090°01'0 0.0
2016-Jul-30 00:31N 29°57' W 090°01'0 0.0
2016-Jul-29 23:31N 29°57' W 090°01'0 0.0
2016-Jul-29 22:31N 29°57' W 090°01'0 0.0
2016-Jul-29 21:31N 29°57' W 090°01'0 0.0
2016-Jul-29 20:31N 29°57' W 090°01'1 1.2
2016-Jul-29 19:32N 29°57' W 089°60'0 0.2
2016-Jul-29 18:31N 29°57' W 089°60'0 0.0
2016-Jul-29 17:32N 29°57' W 089°60'0 0.0
2016-Jul-29 16:31N 29°57' W 089°60'0 0.0
2016-Jul-29 15:31N 29°57' W 089°60'0 0.0
2016-Jul-29 14:31N 29°57' W 089°60'0 0.0
2016-Jul-29 13:31N 29°57' W 089°60'0 0.0
2016-Jul-29 12:31N 29°57' W 089°60'0 0.0
2016-Jul-29 11:31N 29°57' W 089°60'1 1.4
2016-Jul-29 10:31N 29°56' W 089°59'0 0.0
2016-Jul-29 09:31N 29°56' W 089°59'2 1.7
2016-Jul-29 08:33N 29°55' W 089°57'0 0.0
2016-Jul-29 07:33N 29°55' W 089°57'0 0.0
2016-Jul-29 06:33N 29°55' W 089°57'2 1.7
2016-Jul-29 05:31N 29°56' W 089°59'2 2.4
2016-Jul-29 04:32N 29°57' W 090°01'0 0.0
2016-Jul-29 03:32N 29°57' W 090°01'0 0.0
2016-Jul-29 02:32N 29°57' W 090°01'0 0.0
2016-Jul-29 01:32N 29°57' W 090°01'0 0.0
2016-Jul-29 00:32N 29°57' W 090°01'1 0.8
2016-Jul-28 23:33N 29°57' W 090°00'1 0.8
2016-Jul-28 22:32N 29°57' W 090°01'0 0.0
2016-Jul-28 21:32N 29°57' W 090°01'0 0.0
2016-Jul-28 20:32N 29°57' W 090°01'0 0.0
2016-Jul-28 19:32N 29°57' W 090°01'0 0.0
2016-Jul-28 18:32N 29°57' W 090°01'0 0.0
2016-Jul-28 17:32N 29°57' W 090°01'0 0.0
2016-Jul-28 16:32N 29°57' W 090°01'0 0.0
2016-Jul-28 15:32N 29°57' W 090°01'0 0.0
2016-Jul-28 14:32N 29°57' W 090°01'0 0.4
2016-Jul-28 13:31N 29°57' W 090°01'0 0.0
2016-Jul-28 12:34N 29°57' W 090°01'1 1.1
2016-Jul-28 11:31N 29°57' W 089°60'0 0.0
2016-Jul-28 10:31N 29°57' W 089°60'0 0.0
2016-Jul-28 09:31N 29°57' W 089°60'0 0.0
2016-Jul-28 08:31N 29°57' W 089°60'0 0.0
2016-Jul-28 07:31N 29°57' W 089°60'0 0.0
2016-Jul-28 06:31N 29°57' W 089°60'0 0.0
2016-Jul-28 05:31N 29°57' W 089°60'0 0.0
2016-Jul-28 04:31N 29°57' W 089°60'0 0.0
2016-Jul-28 03:31N 29°57' W 089°60'0 0.0
2016-Jul-28 02:32N 29°57' W 089°60'4 3.6
2016-Jul-28 01:31N 29°55' W 089°56'1 0.8
2016-Jul-28 00:32N 29°55' W 089°55'0 0.1
2016-Jul-27 23:33N 29°55' W 089°55'2 2.1
2016-Jul-27 22:32N 29°53' W 089°54'6 6.2
2016-Jul-27 21:31N 29°57' W 089°60'0 0.0
2016-Jul-27 20:31N 29°57' W 089°60'0 0.0
2016-Jul-27 18:25N 29°57' W 089°60'0 0.0
2016-Jul-27 17:31N 29°57' W 089°60'0 0.0
2016-Jul-27 16:31N 29°57' W 089°60'0 0.0
2016-Jul-27 15:31N 29°57' W 089°60'0 0.0
2016-Jul-27 14:31N 29°57' W 089°60'0 0.0
2016-Jul-27 13:31N 29°57' W 089°60'0 0.0
2016-Jul-27 12:31N 29°57' W 089°60'1 0.9
2016-Jul-27 11:33N 29°56' W 089°59'1 0.9
2016-Jul-27 10:33N 29°57' W 089°60'0 0.0
2016-Jul-27 09:33N 29°57' W 089°60'0 0.0
2016-Jul-27 08:33N 29°57' W 089°60'0 0.0
2016-Jul-27 07:33N 29°57' W 089°60'0 0.0
2016-Jul-27 06:33N 29°57' W 089°60'0 0.0
2016-Jul-27 05:30N 29°57' W 089°60'0 0.0
2016-Jul-27 04:33N 29°57' W 089°60'0 0.0
2016-Jul-27 03:33N 29°57' W 089°60'0 0.0
2016-Jul-27 02:33N 29°57' W 089°60'0 0.0
2016-Jul-27 01:33N 29°57' W 089°60'0 0.0
2016-Jul-27 00:33N 29°57' W 089°60'0 0.0
2016-Jul-26 23:33N 29°57' W 089°60'0 0.0
2016-Jul-26 22:33N 29°57' W 089°60'0 0.0
2016-Jul-26 21:33N 29°57' W 089°60'0 0.1
2016-Jul-26 20:32N 29°57' W 089°60'0 0.1
2016-Jul-26 19:32N 29°57' W 089°60'0 0.0
2016-Jul-26 18:32N 29°57' W 089°60'0 0.0
2016-Jul-26 17:32N 29°57' W 089°60'0 0.0
2016-Jul-26 16:32N 29°57' W 089°60'0 0.0
2016-Jul-26 15:32N 29°57' W 089°60'1 0.6
2016-Jul-26 14:31N 29°57' W 090°01'1 0.6
2016-Jul-26 13:33N 29°57' W 090°01'0 0.0
2016-Jul-26 12:33N 29°57' W 090°01'0 0.0
2016-Jul-26 11:33N 29°57' W 090°01'0 0.0
2016-Jul-26 10:33N 29°57' W 090°01'0 0.0
2016-Jul-26 09:33N 29°57' W 090°01'0 0.0
2016-Jul-26 08:33N 29°57' W 090°01'0 0.0
2016-Jul-26 07:30N 29°57' W 090°01'0 0.0
2016-Jul-26 06:33N 29°57' W 090°01'0 0.0
2016-Jul-26 05:33N 29°57' W 090°01'0 0.0
2016-Jul-26 04:33N 29°57' W 090°01'1 1.1
2016-Jul-26 03:33N 29°58' W 090°02'2 1.7
2016-Jul-26 02:30N 29°60' W 090°01'1 1.1
2016-Jul-26 01:34N 29°59' W 090°01'6 5.9
2016-Jul-26 00:33N 29°55' W 090°06'9 8.4
2016-Jul-25 23:33N 29°58' W 090°15'2 0.6
2016-Jul-25 20:04N 29°58' W 090°17'5 7.0
2016-Jul-25 19:24N 29°56' W 090°13'4 4.3
2016-Jul-25 18:33N 29°56' W 090°09'0 0.0
2016-Jul-25 17:33N 29°56' W 090°09'0 0.0
2016-Jul-25 16:33N 29°56' W 090°09'0 0.2
2016-Jul-25 15:30N 29°56' W 090°09'4 3.7
2016-Jul-25 14:31N 29°55' W 090°04'0 0.0
2016-Jul-25 13:28N 29°55' W 090°04'0 0.0
2016-Jul-25 12:31N 29°55' W 090°04'0 0.0
2016-Jul-25 11:31N 29°55' W 090°04'0 0.0
2016-Jul-25 10:28N 29°55' W 090°04'0 0.0
2016-Jul-25 09:31N 29°55' W 090°04'0 0.0
2016-Jul-25 08:31N 29°55' W 090°04'0 0.0
2016-Jul-25 07:31N 29°55' W 090°04'0 0.0
2016-Jul-25 06:31N 29°55' W 090°04'0 0.0
2016-Jul-25 05:28N 29°55' W 090°04'0 0.0
2016-Jul-25 04:31N 29°55' W 090°04'0 0.0
2016-Jul-25 03:31N 29°55' W 090°04'0 0.0
2016-Jul-25 02:31N 29°55' W 090°04'0 0.0
2016-Jul-25 01:31N 29°55' W 090°04'0 0.0
2016-Jul-25 00:31N 29°55' W 090°04'0 0.0
2016-Jul-24 23:31N 29°55' W 090°04'0 0.0
2016-Jul-24 22:31N 29°55' W 090°04'0 0.0
2016-Jul-24 21:28N 29°55' W 090°04'0 0.0
2016-Jul-24 20:31N 29°55' W 090°04'0 0.0
2016-Jul-24 19:31N 29°55' W 090°04'0 0.0
2016-Jul-24 18:28N 29°55' W 090°04'0 0.0
2016-Jul-24 17:07N 29°55' W 090°04'0 0.0
2016-Jul-24 16:31N 29°55' W 090°04'0 0.0
2016-Jul-24 15:28N 29°55' W 090°04'0 0.3
2016-Jul-24 14:33N 29°55' W 090°04'0 0.3
2016-Jul-24 13:32N 29°55' W 090°04'0 0.0
2016-Jul-24 12:32N 29°55' W 090°04'0 0.1
2016-Jul-24 11:33N 29°55' W 090°04'0 0.1
2016-Jul-24 10:31N 29°55' W 090°04'0 0.0
2016-Jul-24 09:31N 29°55' W 090°04'1 1.3
2016-Jul-24 08:33N 29°56' W 090°04'2 1.7
2016-Jul-24 07:32N 29°58' W 090°02'0 0.0
2016-Jul-24 06:32N 29°58' W 090°02'0 0.0
2016-Jul-24 05:32N 29°58' W 090°02'0 0.0
2016-Jul-24 04:32N 29°58' W 090°02'1 1.1
2016-Jul-24 03:33N 29°57' W 090°01'7 6.9
2016-Jul-24 02:33N 29°54' W 089°54'7 6.8
2016-Jul-24 01:33N 29°57' W 090°01'0 0.1
2016-Jul-24 00:33N 29°57' W 090°01'0 0.0
2016-Jul-23 23:30N 29°57' W 090°01'1 1.1
2016-Jul-23 22:33N 29°57' W 089°60'0 0.0
2016-Jul-23 21:34N 29°57' W 089°60'4 3.9
2016-Jul-23 20:32N 29°55' W 090°04'0 0.0
2016-Jul-23 19:32N 29°55' W 090°04'0 0.0
2016-Jul-23 18:32N 29°55' W 090°04'0 0.0
2016-Jul-23 17:32N 29°55' W 090°04'1 1.2
2016-Jul-23 16:31N 29°56' W 090°03'0 0.1
2016-Jul-23 15:31N 29°56' W 090°03'0 0.0
2016-Jul-23 14:31N 29°56' W 090°03'3 3.1
2016-Jul-23 13:31N 29°57' W 089°60'1 1.3
2016-Jul-23 12:33N 29°57' W 090°01'6 6.4
2016-Jul-23 11:33N 29°56' W 090°09'1 0.9
2016-Jul-23 10:31N 29°56' W 090°08'2 2.2
2016-Jul-23 09:33N 29°55' W 090°06'1 0.6
2016-Jul-23 08:33N 29°55' W 090°05'2 1.9
2016-Jul-23 07:33N 29°56' W 090°04'3 2.6
2016-Jul-23 06:31N 29°57' W 090°01'0 0.0
2016-Jul-23 04:31N 29°57' W 090°01'0 0.0
2016-Jul-23 03:31N 29°57' W 090°01'2 2.3
2016-Jul-23 02:32N 29°56' W 089°59'1 1.4
2016-Jul-23 01:33N 29°55' W 089°57'4 3.5
2016-Jul-23 00:31N 29°57' W 090°01'0 0.0
2016-Jul-22 23:31N 29°57' W 090°01'0 0.0
2016-Jul-22 22:31N 29°57' W 090°01'0 0.0
2016-Jul-22 21:31N 29°57' W 090°01'0 0.0
2016-Jul-22 20:31N 29°57' W 090°01'0 0.0
2016-Jul-22 19:31N 29°57' W 090°01'0 0.0
2016-Jul-22 18:31N 29°57' W 090°01'0 0.0
2016-Jul-22 17:31N 29°57' W 090°01'0 0.0
2016-Jul-22 16:31N 29°57' W 090°01'0 0.0
2016-Jul-22 15:31N 29°57' W 090°01'0 0.0
2016-Jul-22 14:31N 29°57' W 090°01'0 0.0
2016-Jul-22 13:31N 29°57' W 090°01'0 0.0
2016-Jul-22 12:31N 29°57' W 090°01'0 0.0
2016-Jul-22 11:31N 29°57' W 090°01'0 0.0
2016-Jul-22 10:31N 29°57' W 090°01'2 2.5
2016-Jul-22 09:33N 29°56' W 089°59'1 1.5
2016-Jul-22 08:33N 29°57' W 090°00'1 0.9
2016-Jul-22 07:31N 29°57' W 090°01'0 0.0
2016-Jul-22 04:31N 29°57' W 090°01'0 0.0
2016-Jul-22 03:31N 29°57' W 090°01'0 0.0
2016-Jul-22 02:31N 29°57' W 090°01'0 0.0
2016-Jul-22 01:31N 29°57' W 090°01'1 1.3
2016-Jul-22 00:33N 29°56' W 089°60'0 0.3
2016-Jul-21 23:33N 29°57' W 089°60'5 4.9
2016-Jul-21 22:33N 29°55' W 090°05'3 2.6
2016-Jul-21 21:30N 29°56' W 090°08'0 0.0
2016-Jul-21 20:33N 29°56' W 090°08'0 0.0
2016-Jul-21 19:33N 29°56' W 090°08'0 0.0
2016-Jul-21 18:33N 29°56' W 090°08'0 0.0
2016-Jul-21 17:30N 29°56' W 090°08'0 0.0
2016-Jul-21 16:33N 29°56' W 090°08'1 1.2
2016-Jul-21 15:31N 29°57' W 090°09'1 1.3
2016-Jul-21 14:33N 29°56' W 090°08'5 5.3
2016-Jul-21 13:34N 29°57' W 090°03'1 1.5
2016-Jul-21 12:33N 29°57' W 090°01'5 3.8
2016-Jul-21 11:20N 29°55' W 089°56'0 0.0
2016-Jul-21 10:29N 29°55' W 089°56'0 0.1
2016-Jul-21 09:33N 29°55' W 089°56'5 4.5
2016-Jul-21 08:33N 29°57' W 090°01'0 0.0
2016-Jul-21 07:33N 29°57' W 090°01'0 0.0
2016-Jul-21 06:33N 29°57' W 090°01'0 0.0
2016-Jul-21 05:33N 29°57' W 090°01'0 0.0
2016-Jul-21 04:33N 29°57' W 090°01'0 0.1
2016-Jul-21 03:31N 29°57' W 090°01'0 0.1
2016-Jul-21 02:33N 29°57' W 090°01'0 0.0
2016-Jul-21 01:33N 29°57' W 090°01'5 4.9
2016-Jul-21 00:33N 29°55' W 089°56'  
Track history (hours):
 
Tides and Currents Weather Stations Pressure Air Temp Water Temp Dewpoint Dewpoint Depression Visibility Wind Speed Wind Dir Waves Ship Positions

Michael S

Owner: Bisso Tow Boats Inc., New Orleans, LA. More information available from US FCC via Universal Licensing System and Coast Guard Vessel Documentation Center.

Last reported at 2016-Jul-30 22:32 UTC. Time now 2016-Jul-31 00:17 UTC.
Position N 29°57' W 090°01'.

Length 33 m; draft 3 m.

Type: Towing. MMSI: 367413700.

Date/timePositionNaut miles runAvg speedWind from/ knotsBaromVisibWave heightAir tempDewpointWater temp
2016-Jul-30 22:32N 29°57' W 090°01'0 0.0
2016-Jul-30 21:32N 29°57' W 090°01'0 0.0
2016-Jul-30 20:26N 29°57' W 090°01'0 0.0
2016-Jul-30 19:32N 29°57' W 090°01'0 0.0
2016-Jul-30 18:32N 29°57' W 090°01'1 1.4
2016-Jul-30 17:32N 29°56' W 089°60'1 1.4
2016-Jul-30 16:31N 29°57' W 090°01'0 0.0
2016-Jul-30 15:31N 29°57' W 090°01'0 0.0
2016-Jul-30 14:31N 29°57' W 090°01'0 0.0
2016-Jul-30 13:31N 29°57' W 090°01'0 0.0
2016-Jul-30 12:31N 29°57' W 090°01'0 0.4
2016-Jul-30 11:31N 29°57' W 090°01'0 0.0
2016-Jul-30 10:31N 29°57' W 090°01'0 0.0
2016-Jul-30 09:31N 29°57' W 090°01'0 0.0
2016-Jul-30 08:31N 29°57' W 090°01'0 0.0
2016-Jul-30 07:31N 29°57' W 090°01'0 0.0
2016-Jul-30 06:31N 29°57' W 090°01'0 0.0
2016-Jul-30 05:31N 29°57' W 090°01'0 0.0
2016-Jul-30 04:31N 29°57' W 090°01'0 0.0
2016-Jul-30 03:31N 29°57' W 090°01'0 0.0
2016-Jul-30 02:31N 29°57' W 090°01'0 0.0
2016-Jul-30 01:31N 29°57' W 090°01'0 0.0
2016-Jul-30 00:31N 29°57' W 090°01'0 0.0
2016-Jul-29 23:31N 29°57' W 090°01'0 0.0
2016-Jul-29 22:31N 29°57' W 090°01'0 0.0
2016-Jul-29 21:31N 29°57' W 090°01'0 0.0
2016-Jul-29 20:31N 29°57' W 090°01'1 1.2
2016-Jul-29 19:32N 29°57' W 089°60'0 0.2
2016-Jul-29 18:31N 29°57' W 089°60'0 0.0
2016-Jul-29 17:32N 29°57' W 089°60'0 0.0
2016-Jul-29 16:31N 29°57' W 089°60'0 0.0
2016-Jul-29 15:31N 29°57' W 089°60'0 0.0
2016-Jul-29 14:31N 29°57' W 089°60'0 0.0
2016-Jul-29 13:31N 29°57' W 089°60'0 0.0
2016-Jul-29 12:31N 29°57' W 089°60'0 0.0
2016-Jul-29 11:31N 29°57' W 089°60'1 1.4
2016-Jul-29 10:31N 29°56' W 089°59'0 0.0
2016-Jul-29 09:31N 29°56' W 089°59'2 1.7
2016-Jul-29 08:33N 29°55' W 089°57'0 0.0
2016-Jul-29 07:33N 29°55' W 089°57'0 0.0
2016-Jul-29 06:33N 29°55' W 089°57'2 1.7
2016-Jul-29 05:31N 29°56' W 089°59'2 2.4
2016-Jul-29 04:32N 29°57' W 090°01'0 0.0
2016-Jul-29 03:32N 29°57' W 090°01'0 0.0
2016-Jul-29 02:32N 29°57' W 090°01'0 0.0
2016-Jul-29 01:32N 29°57' W 090°01'0 0.0
2016-Jul-29 00:32N 29°57' W 090°01'1 0.8
2016-Jul-28 23:33N 29°57' W 090°00'1 0.8
2016-Jul-28 22:32N 29°57' W 090°01'0 0.0
2016-Jul-28 21:32N 29°57' W 090°01'0 0.0
2016-Jul-28 20:32N 29°57' W 090°01'0 0.0
2016-Jul-28 19:32N 29°57' W 090°01'0 0.0
2016-Jul-28 18:32N 29°57' W 090°01'0 0.0
2016-Jul-28 17:32N 29°57' W 090°01'0 0.0
2016-Jul-28 16:32N 29°57' W 090°01'0 0.0
2016-Jul-28 15:32N 29°57' W 090°01'0 0.0
2016-Jul-28 14:32N 29°57' W 090°01'0 0.4
2016-Jul-28 13:31N 29°57' W 090°01'0 0.0
2016-Jul-28 12:34N 29°57' W 090°01'1 1.1
2016-Jul-28 11:31N 29°57' W 089°60'0 0.0
2016-Jul-28 10:31N 29°57' W 089°60'0 0.0
2016-Jul-28 09:31N 29°57' W 089°60'0 0.0
2016-Jul-28 08:31N 29°57' W 089°60'0 0.0
2016-Jul-28 07:31N 29°57' W 089°60'0 0.0
2016-Jul-28 06:31N 29°57' W 089°60'0 0.0
2016-Jul-28 05:31N 29°57' W 089°60'0 0.0
2016-Jul-28 04:31N 29°57' W 089°60'0 0.0
2016-Jul-28 03:31N 29°57' W 089°60'0 0.0
2016-Jul-28 02:32N 29°57' W 089°60'4 3.6
2016-Jul-28 01:31N 29°55' W 089°56'1 0.8
2016-Jul-28 00:32N 29°55' W 089°55'0 0.1
2016-Jul-27 23:33N 29°55' W 089°55'2 2.1
2016-Jul-27 22:32N 29°53' W 089°54'6 6.2
2016-Jul-27 21:31N 29°57' W 089°60'0 0.0
2016-Jul-27 20:31N 29°57' W 089°60'0 0.0
2016-Jul-27 18:25N 29°57' W 089°60'0 0.0
2016-Jul-27 17:31N 29°57' W 089°60'0 0.0
2016-Jul-27 16:31N 29°57' W 089°60'0 0.0
2016-Jul-27 15:31N 29°57' W 089°60'0 0.0
2016-Jul-27 14:31N 29°57' W 089°60'0 0.0
2016-Jul-27 13:31N 29°57' W 089°60'0 0.0
2016-Jul-27 12:31N 29°57' W 089°60'1 0.9
2016-Jul-27 11:33N 29°56' W 089°59'1 0.9
2016-Jul-27 10:33N 29°57' W 089°60'0 0.0
2016-Jul-27 09:33N 29°57' W 089°60'0 0.0
2016-Jul-27 08:33N 29°57' W 089°60'0 0.0
2016-Jul-27 07:33N 29°57' W 089°60'0 0.0
2016-Jul-27 06:33N 29°57' W 089°60'0 0.0
2016-Jul-27 05:30N 29°57' W 089°60'0 0.0
2016-Jul-27 04:33N 29°57' W 089°60'0 0.0
2016-Jul-27 03:33N 29°57' W 089°60'0 0.0
2016-Jul-27 02:33N 29°57' W 089°60'0 0.0
2016-Jul-27 01:33N 29°57' W 089°60'0 0.0
2016-Jul-27 00:33N 29°57' W 089°60'0 0.0
2016-Jul-26 23:33N 29°57' W 089°60'0 0.0
2016-Jul-26 22:33N 29°57' W 089°60'0 0.0
2016-Jul-26 21:33N 29°57' W 089°60'0 0.1
2016-Jul-26 20:32N 29°57' W 089°60'0 0.1
2016-Jul-26 19:32N 29°57' W 089°60'0 0.0
2016-Jul-26 18:32N 29°57' W 089°60'0 0.0
2016-Jul-26 17:32N 29°57' W 089°60'0 0.0
2016-Jul-26 16:32N 29°57' W 089°60'0 0.0
2016-Jul-26 15:32N 29°57' W 089°60'1 0.6
2016-Jul-26 14:31N 29°57' W 090°01'1 0.6
2016-Jul-26 13:33N 29°57' W 090°01'0 0.0
2016-Jul-26 12:33N 29°57' W 090°01'0 0.0
2016-Jul-26 11:33N 29°57' W 090°01'0 0.0
2016-Jul-26 10:33N 29°57' W 090°01'0 0.0
2016-Jul-26 09:33N 29°57' W 090°01'0 0.0
2016-Jul-26 08:33N 29°57' W 090°01'0 0.0
2016-Jul-26 07:30N 29°57' W 090°01'0 0.0
2016-Jul-26 06:33N 29°57' W 090°01'0 0.0
2016-Jul-26 05:33N 29°57' W 090°01'0 0.0
2016-Jul-26 04:33N 29°57' W 090°01'1 1.1
2016-Jul-26 03:33N 29°58' W 090°02'2 1.7
2016-Jul-26 02:30N 29°60' W 090°01'1 1.1
2016-Jul-26 01:34N 29°59' W 090°01'6 5.9
2016-Jul-26 00:33N 29°55' W 090°06'9 8.4
2016-Jul-25 23:33N 29°58' W 090°15'2 0.6
2016-Jul-25 20:04N 29°58' W 090°17'5 7.0
2016-Jul-25 19:24N 29°56' W 090°13'4 4.3
2016-Jul-25 18:33N 29°56' W 090°09'0 0.0
2016-Jul-25 17:33N 29°56' W 090°09'0 0.0
2016-Jul-25 16:33N 29°56' W 090°09'0 0.2
2016-Jul-25 15:30N 29°56' W 090°09'4 3.7
2016-Jul-25 14:31N 29°55' W 090°04'0 0.0
2016-Jul-25 13:28N 29°55' W 090°04'0 0.0
2016-Jul-25 12:31N 29°55' W 090°04'0 0.0
2016-Jul-25 11:31N 29°55' W 090°04'0 0.0
2016-Jul-25 10:28N 29°55' W 090°04'0 0.0
2016-Jul-25 09:31N 29°55' W 090°04'0 0.0
2016-Jul-25 08:31N 29°55' W 090°04'0 0.0
2016-Jul-25 07:31N 29°55' W 090°04'0 0.0
2016-Jul-25 06:31N 29°55' W 090°04'0 0.0
2016-Jul-25 05:28N 29°55' W 090°04'0 0.0
2016-Jul-25 04:31N 29°55' W 090°04'0 0.0
2016-Jul-25 03:31N 29°55' W 090°04'0 0.0
2016-Jul-25 02:31N 29°55' W 090°04'0 0.0
2016-Jul-25 01:31N 29°55' W 090°04'0 0.0
2016-Jul-25 00:31N 29°55' W 090°04'0 0.0
2016-Jul-24 23:31N 29°55' W 090°04'0 0.0
2016-Jul-24 22:31N 29°55' W 090°04'0 0.0
2016-Jul-24 21:28N 29°55' W 090°04'0 0.0
2016-Jul-24 20:31N 29°55' W 090°04'0 0.0
2016-Jul-24 19:31N 29°55' W 090°04'0 0.0
2016-Jul-24 18:28N 29°55' W 090°04'0 0.0
2016-Jul-24 17:07N 29°55' W 090°04'0 0.0
2016-Jul-24 16:31N 29°55' W 090°04'0 0.0
2016-Jul-24 15:28N 29°55' W 090°04'0 0.3
2016-Jul-24 14:33N 29°55' W 090°04'0 0.3
2016-Jul-24 13:32N 29°55' W 090°04'0 0.0
2016-Jul-24 12:32N 29°55' W 090°04'0 0.1
2016-Jul-24 11:33N 29°55' W 090°04'0 0.1
2016-Jul-24 10:31N 29°55' W 090°04'0 0.0
2016-Jul-24 09:31N 29°55' W 090°04'1 1.3
2016-Jul-24 08:33N 29°56' W 090°04'2 1.7
2016-Jul-24 07:32N 29°58' W 090°02'0 0.0
2016-Jul-24 06:32N 29°58' W 090°02'0 0.0
2016-Jul-24 05:32N 29°58' W 090°02'0 0.0
2016-Jul-24 04:32N 29°58' W 090°02'1 1.1
2016-Jul-24 03:33N 29°57' W 090°01'7 6.9
2016-Jul-24 02:33N 29°54' W 089°54'7 6.8
2016-Jul-24 01:33N 29°57' W 090°01'0 0.1
2016-Jul-24 00:33N 29°57' W 090°01'0 0.0
2016-Jul-23 23:30N 29°57' W 090°01'1 1.1
2016-Jul-23 22:33N 29°57' W 089°60'0 0.0
2016-Jul-23 21:34N 29°57' W 089°60'4 3.9
2016-Jul-23 20:32N 29°55' W 090°04'0 0.0
2016-Jul-23 19:32N 29°55' W 090°04'0 0.0
2016-Jul-23 18:32N 29°55' W 090°04'0 0.0
2016-Jul-23 17:32N 29°55' W 090°04'1 1.2
2016-Jul-23 16:31N 29°56' W 090°03'0 0.1
2016-Jul-23 15:31N 29°56' W 090°03'0 0.0
2016-Jul-23 14:31N 29°56' W 090°03'3 3.1
2016-Jul-23 13:31N 29°57' W 089°60'1 1.3
2016-Jul-23 12:33N 29°57' W 090°01'6 6.4
2016-Jul-23 11:33N 29°56' W 090°09'1 0.9
2016-Jul-23 10:31N 29°56' W 090°08'2 2.2
2016-Jul-23 09:33N 29°55' W 090°06'1 0.6
2016-Jul-23 08:33N 29°55' W 090°05'2 1.9
2016-Jul-23 07:33N 29°56' W 090°04'3 2.6
2016-Jul-23 06:31N 29°57' W 090°01'0 0.0
2016-Jul-23 04:31N 29°57' W 090°01'0 0.0
2016-Jul-23 03:31N 29°57' W 090°01'2 2.3
2016-Jul-23 02:32N 29°56' W 089°59'1 1.4
2016-Jul-23 01:33N 29°55' W 089°57'4 3.5
2016-Jul-23 00:31N 29°57' W 090°01'0 0.0
2016-Jul-22 23:31N 29°57' W 090°01'0 0.0
2016-Jul-22 22:31N 29°57' W 090°01'0 0.0
2016-Jul-22 21:31N 29°57' W 090°01'0 0.0
2016-Jul-22 20:31N 29°57' W 090°01'0 0.0
2016-Jul-22 19:31N 29°57' W 090°01'0 0.0
2016-Jul-22 18:31N 29°57' W 090°01'0 0.0
2016-Jul-22 17:31N 29°57' W 090°01'0 0.0
2016-Jul-22 16:31N 29°57' W 090°01'0 0.0
2016-Jul-22 15:31N 29°57' W 090°01'0 0.0
2016-Jul-22 14:31N 29°57' W 090°01'0 0.0
2016-Jul-22 13:31N 29°57' W 090°01'0 0.0
2016-Jul-22 12:31N 29°57' W 090°01'0 0.0
2016-Jul-22 11:31N 29°57' W 090°01'0 0.0
2016-Jul-22 10:31N 29°57' W 090°01'2 2.5
2016-Jul-22 09:33N 29°56' W 089°59'1 1.5
2016-Jul-22 08:33N 29°57' W 090°00'1 0.9
2016-Jul-22 07:31N 29°57' W 090°01'0 0.0
2016-Jul-22 04:31N 29°57' W 090°01'0 0.0
2016-Jul-22 03:31N 29°57' W 090°01'0 0.0
2016-Jul-22 02:31N 29°57' W 090°01'0 0.0
2016-Jul-22 01:31N 29°57' W 090°01'1 1.3
2016-Jul-22 00:33N 29°56' W 089°60'0 0.3
2016-Jul-21 23:33N 29°57' W 089°60'5 4.9
2016-Jul-21 22:33N 29°55' W 090°05'3 2.6
2016-Jul-21 21:30N 29°56' W 090°08'0 0.0
2016-Jul-21 20:33N 29°56' W 090°08'0 0.0
2016-Jul-21 19:33N 29°56' W 090°08'0 0.0
2016-Jul-21 18:33N 29°56' W 090°08'0 0.0
2016-Jul-21 17:30N 29°56' W 090°08'0 0.0
2016-Jul-21 16:33N 29°56' W 090°08'1 1.2
2016-Jul-21 15:31N 29°57' W 090°09'1 1.3
2016-Jul-21 14:33N 29°56' W 090°08'5 5.3
2016-Jul-21 13:34N 29°57' W 090°03'1 1.5
2016-Jul-21 12:33N 29°57' W 090°01'5 3.8
2016-Jul-21 11:20N 29°55' W 089°56'0 0.0
2016-Jul-21 10:29N 29°55' W 089°56'0 0.1
2016-Jul-21 09:33N 29°55' W 089°56'5 4.5
2016-Jul-21 08:33N 29°57' W 090°01'0 0.0
2016-Jul-21 07:33N 29°57' W 090°01'0 0.0
2016-Jul-21 06:33N 29°57' W 090°01'0 0.0
2016-Jul-21 05:33N 29°57' W 090°01'0 0.0
2016-Jul-21 04:33N 29°57' W 090°01'0 0.1
2016-Jul-21 03:31N 29°57' W 090°01'0 0.1
2016-Jul-21 02:33N 29°57' W 090°01'0 0.0
2016-Jul-21 01:33N 29°57' W 090°01'5 4.9
2016-Jul-21 00:33N 29°55' W 089°56'  

Dump ship's entire track history